sensor_id;sensor_type;location;lat;lon;timestamp;P1;durP1;ratioP1;P2;durP2;ratioP2
62933;SDS011;49038;47.600;19.242;2022-08-18T00:01:03;9.65;;;4.68;;
62933;SDS011;49038;47.600;19.242;2022-08-18T00:04:06;12.25;;;5.70;;
62933;SDS011;49038;47.600;19.242;2022-08-18T00:07:30;5.72;;;4.57;;
62933;SDS011;49038;47.600;19.242;2022-08-18T00:10:33;6.75;;;4.78;;
62933;SDS011;49038;47.600;19.242;2022-08-18T00:13:36;8.27;;;4.87;;
62933;SDS011;49038;47.600;19.242;2022-08-18T00:16:38;9.52;;;4.65;;
62933;SDS011;49038;47.600;19.242;2022-08-18T00:19:40;8.48;;;4.60;;
62933;SDS011;49038;47.600;19.242;2022-08-18T00:22:48;5.90;;;4.90;;
62933;SDS011;49038;47.600;19.242;2022-08-18T00:25:51;10.07;;;4.90;;
62933;SDS011;49038;47.600;19.242;2022-08-18T00:28:54;7.30;;;4.72;;
62933;SDS011;49038;47.600;19.242;2022-08-18T00:31:56;6.30;;;4.45;;
62933;SDS011;49038;47.600;19.242;2022-08-18T00:35:06;6.78;;;4.68;;
62933;SDS011;49038;47.600;19.242;2022-08-18T00:41:26;12.70;;;5.82;;
62933;SDS011;49038;47.600;19.242;2022-08-18T00:44:29;7.47;;;5.15;;
62933;SDS011;49038;47.600;19.242;2022-08-18T00:47:31;8.25;;;4.60;;
62933;SDS011;49038;47.600;19.242;2022-08-18T00:54:04;6.93;;;5.18;;
62933;SDS011;49038;47.600;19.242;2022-08-18T00:57:09;5.95;;;5.05;;
62933;SDS011;49038;47.600;19.242;2022-08-18T01:00:13;14.30;;;5.03;;
62933;SDS011;49038;47.600;19.242;2022-08-18T01:03:16;11.23;;;5.65;;
62933;SDS011;49038;47.600;19.242;2022-08-18T01:06:27;9.75;;;5.15;;
62933;SDS011;49038;47.600;19.242;2022-08-18T01:09:33;8.85;;;5.25;;
62933;SDS011;49038;47.600;19.242;2022-08-18T01:12:35;8.82;;;4.95;;
62933;SDS011;49038;47.600;19.242;2022-08-18T01:15:47;6.68;;;5.00;;
62933;SDS011;49038;47.600;19.242;2022-08-18T01:18:49;8.45;;;5.40;;
62933;SDS011;49038;47.600;19.242;2022-08-18T01:22:18;7.72;;;5.18;;
62933;SDS011;49038;47.600;19.242;2022-08-18T01:25:24;9.50;;;5.07;;
62933;SDS011;49038;47.600;19.242;2022-08-18T01:28:45;9.40;;;5.37;;
62933;SDS011;49038;47.600;19.242;2022-08-18T01:31:51;8.80;;;5.28;;
62933;SDS011;49038;47.600;19.242;2022-08-18T01:34:57;7.28;;;5.05;;
62933;SDS011;49038;47.600;19.242;2022-08-18T01:38:00;8.30;;;5.22;;
62933;SDS011;49038;47.600;19.242;2022-08-18T01:41:02;7.37;;;4.82;;
62933;SDS011;49038;47.600;19.242;2022-08-18T01:44:25;6.87;;;5.22;;
62933;SDS011;49038;47.600;19.242;2022-08-18T01:47:28;10.88;;;5.18;;
62933;SDS011;49038;47.600;19.242;2022-08-18T01:50:48;7.30;;;5.15;;
62933;SDS011;49038;47.600;19.242;2022-08-18T01:53:51;8.15;;;5.30;;
62933;SDS011;49038;47.600;19.242;2022-08-18T01:56:53;7.15;;;5.57;;
62933;SDS011;49038;47.600;19.242;2022-08-18T01:59:55;7.20;;;5.50;;
62933;SDS011;49038;47.600;19.242;2022-08-18T02:03:01;6.60;;;5.03;;
62933;SDS011;49038;47.600;19.242;2022-08-18T02:06:12;6.68;;;5.05;;
62933;SDS011;49038;47.600;19.242;2022-08-18T02:09:15;6.90;;;5.25;;
62933;SDS011;49038;47.600;19.242;2022-08-18T02:12:25;10.10;;;5.35;;
62933;SDS011;49038;47.600;19.242;2022-08-18T02:15:27;8.30;;;5.95;;
62933;SDS011;49038;47.600;19.242;2022-08-18T02:18:31;9.20;;;4.90;;
62933;SDS011;49038;47.600;19.242;2022-08-18T02:21:52;10.77;;;5.97;;
62933;SDS011;49038;47.600;19.242;2022-08-18T02:24:55;17.45;;;6.20;;
62933;SDS011;49038;47.600;19.242;2022-08-18T02:27:58;9.40;;;6.07;;
62933;SDS011;49038;47.600;19.242;2022-08-18T02:31:07;11.10;;;6.22;;
62933;SDS011;49038;47.600;19.242;2022-08-18T02:34:13;9.07;;;5.15;;
62933;SDS011;49038;47.600;19.242;2022-08-18T02:37:16;11.32;;;5.85;;
62933;SDS011;49038;47.600;19.242;2022-08-18T02:40:18;7.80;;;5.30;;
62933;SDS011;49038;47.600;19.242;2022-08-18T02:43:21;8.80;;;5.93;;
62933;SDS011;49038;47.600;19.242;2022-08-18T02:46:23;10.30;;;6.15;;
62933;SDS011;49038;47.600;19.242;2022-08-18T02:49:32;8.32;;;5.93;;
62933;SDS011;49038;47.600;19.242;2022-08-18T02:52:34;10.65;;;5.22;;
62933;SDS011;49038;47.600;19.242;2022-08-18T02:55:38;7.15;;;5.55;;
62933;SDS011;49038;47.600;19.242;2022-08-18T02:58:40;13.00;;;5.85;;
62933;SDS011;49038;47.600;19.242;2022-08-18T03:01:44;12.05;;;5.57;;
62933;SDS011;49038;47.600;19.242;2022-08-18T03:04:48;6.68;;;5.68;;
62933;SDS011;49038;47.600;19.242;2022-08-18T03:07:52;8.05;;;5.78;;
62933;SDS011;49038;47.600;19.242;2022-08-18T03:10:54;13.05;;;6.53;;
62933;SDS011;49038;47.600;19.242;2022-08-18T03:13:57;7.47;;;5.93;;
62933;SDS011;49038;47.600;19.242;2022-08-18T03:17:02;8.65;;;5.60;;
62933;SDS011;49038;47.600;19.242;2022-08-18T03:20:06;7.18;;;5.75;;
62933;SDS011;49038;47.600;19.242;2022-08-18T03:23:09;9.57;;;6.03;;
62933;SDS011;49038;47.600;19.242;2022-08-18T03:26:13;10.43;;;5.90;;
62933;SDS011;49038;47.600;19.242;2022-08-18T03:29:17;14.30;;;5.93;;
62933;SDS011;49038;47.600;19.242;2022-08-18T03:32:20;9.23;;;6.40;;
62933;SDS011;49038;47.600;19.242;2022-08-18T03:35:23;10.70;;;5.90;;
62933;SDS011;49038;47.600;19.242;2022-08-18T03:38:26;19.55;;;6.78;;
62933;SDS011;49038;47.600;19.242;2022-08-18T03:41:28;9.35;;;5.43;;
62933;SDS011;49038;47.600;19.242;2022-08-18T03:44:51;10.70;;;5.90;;
62933;SDS011;49038;47.600;19.242;2022-08-18T03:47:53;9.38;;;6.10;;
62933;SDS011;49038;47.600;19.242;2022-08-18T03:51:01;7.80;;;6.05;;
62933;SDS011;49038;47.600;19.242;2022-08-18T03:54:08;7.80;;;5.62;;
62933;SDS011;49038;47.600;19.242;2022-08-18T03:57:11;9.75;;;5.18;;
62933;SDS011;49038;47.600;19.242;2022-08-18T04:00:13;15.70;;;6.47;;
62933;SDS011;49038;47.600;19.242;2022-08-18T04:03:16;9.80;;;6.15;;
62933;SDS011;49038;47.600;19.242;2022-08-18T04:06:20;8.77;;;5.97;;
62933;SDS011;49038;47.600;19.242;2022-08-18T04:09:31;10.70;;;5.70;;
62933;SDS011;49038;47.600;19.242;2022-08-18T04:12:34;8.95;;;6.20;;
62933;SDS011;49038;47.600;19.242;2022-08-18T04:15:38;11.68;;;6.30;;
62933;SDS011;49038;47.600;19.242;2022-08-18T04:18:41;10.38;;;6.90;;
62933;SDS011;49038;47.600;19.242;2022-08-18T04:21:43;9.52;;;7.00;;
62933;SDS011;49038;47.600;19.242;2022-08-18T04:24:46;8.52;;;6.43;;
62933;SDS011;49038;47.600;19.242;2022-08-18T04:27:50;12.50;;;6.15;;
62933;SDS011;49038;47.600;19.242;2022-08-18T04:30:53;7.43;;;5.75;;
62933;SDS011;49038;47.600;19.242;2022-08-18T04:33:56;6.00;;;5.10;;
62933;SDS011;49038;47.600;19.242;2022-08-18T04:36:59;7.53;;;5.15;;
62933;SDS011;49038;47.600;19.242;2022-08-18T04:40:03;11.60;;;6.07;;
62933;SDS011;49038;47.600;19.242;2022-08-18T04:43:07;13.18;;;6.47;;
62933;SDS011;49038;47.600;19.242;2022-08-18T04:46:15;17.58;;;7.12;;
62933;SDS011;49038;47.600;19.242;2022-08-18T04:49:19;6.78;;;5.22;;
62933;SDS011;49038;47.600;19.242;2022-08-18T04:52:27;11.52;;;6.72;;
62933;SDS011;49038;47.600;19.242;2022-08-18T04:55:52;11.63;;;6.37;;
62933;SDS011;49038;47.600;19.242;2022-08-18T04:58:57;9.88;;;6.20;;
62933;SDS011;49038;47.600;19.242;2022-08-18T05:02:01;20.45;;;6.28;;
62933;SDS011;49038;47.600;19.242;2022-08-18T05:05:14;15.82;;;7.05;;
62933;SDS011;49038;47.600;19.242;2022-08-18T05:08:17;11.85;;;6.32;;
62933;SDS011;49038;47.600;19.242;2022-08-18T05:11:23;12.18;;;5.78;;
62933;SDS011;49038;47.600;19.242;2022-08-18T05:14:26;24.12;;;6.55;;
62933;SDS011;49038;47.600;19.242;2022-08-18T05:17:28;11.77;;;5.85;;
62933;SDS011;49038;47.600;19.242;2022-08-18T05:20:32;7.12;;;4.60;;
62933;SDS011;49038;47.600;19.242;2022-08-18T05:23:34;17.15;;;6.30;;
62933;SDS011;49038;47.600;19.242;2022-08-18T05:26:37;7.22;;;4.62;;
62933;SDS011;49038;47.600;19.242;2022-08-18T05:29:41;8.65;;;4.97;;
62933;SDS011;49038;47.600;19.242;2022-08-18T05:32:47;5.87;;;4.20;;
62933;SDS011;49038;47.600;19.242;2022-08-18T05:35:53;5.32;;;4.78;;
62933;SDS011;49038;47.600;19.242;2022-08-18T05:42:20;9.25;;;4.97;;
62933;SDS011;49038;47.600;19.242;2022-08-18T05:45:24;7.85;;;4.50;;
62933;SDS011;49038;47.600;19.242;2022-08-18T05:48:27;8.15;;;5.28;;
62933;SDS011;49038;47.600;19.242;2022-08-18T05:51:32;5.60;;;4.57;;
62933;SDS011;49038;47.600;19.242;2022-08-18T05:54:38;8.77;;;5.00;;
62933;SDS011;49038;47.600;19.242;2022-08-18T05:58:03;26.87;;;6.62;;
62933;SDS011;49038;47.600;19.242;2022-08-18T06:01:14;10.90;;;5.43;;
62933;SDS011;49038;47.600;19.242;2022-08-18T06:04:21;6.15;;;4.25;;
62933;SDS011;49038;47.600;19.242;2022-08-18T06:10:47;6.07;;;4.15;;
62933;SDS011;49038;47.600;19.242;2022-08-18T06:13:50;5.20;;;4.35;;
62933;SDS011;49038;47.600;19.242;2022-08-18T06:30:19;6.20;;;4.75;;
62933;SDS011;49038;47.600;19.242;2022-08-18T06:36:51;5.90;;;4.07;;
62933;SDS011;49038;47.600;19.242;2022-08-18T06:39:54;5.18;;;3.80;;
62933;SDS011;49038;47.600;19.242;2022-08-18T06:42:58;6.93;;;4.22;;
62933;SDS011;49038;47.600;19.242;2022-08-18T06:46:08;4.37;;;3.72;;
62933;SDS011;49038;47.600;19.242;2022-08-18T06:49:17;6.53;;;3.67;;
62933;SDS011;49038;47.600;19.242;2022-08-18T06:52:27;7.00;;;4.12;;
62933;SDS011;49038;47.600;19.242;2022-08-18T06:58:38;4.80;;;4.07;;
62933;SDS011;49038;47.600;19.242;2022-08-18T07:01:40;7.43;;;4.35;;
62933;SDS011;49038;47.600;19.242;2022-08-18T07:08:28;4.78;;;3.75;;
62933;SDS011;49038;47.600;19.242;2022-08-18T07:11:33;6.03;;;4.25;;
62933;SDS011;49038;47.600;19.242;2022-08-18T07:14:50;4.97;;;3.87;;
62933;SDS011;49038;47.600;19.242;2022-08-18T07:18:01;6.32;;;4.25;;
62933;SDS011;49038;47.600;19.242;2022-08-18T07:21:06;6.03;;;3.97;;
62933;SDS011;49038;47.600;19.242;2022-08-18T07:24:24;5.12;;;4.05;;
62933;SDS011;49038;47.600;19.242;2022-08-18T07:27:40;6.72;;;3.97;;
62933;SDS011;49038;47.600;19.242;2022-08-18T07:30:50;7.60;;;4.40;;
62933;SDS011;49038;47.600;19.242;2022-08-18T07:34:15;5.22;;;3.80;;
62933;SDS011;49038;47.600;19.242;2022-08-18T07:37:22;4.43;;;3.70;;
62933;SDS011;49038;47.600;19.242;2022-08-18T07:40:44;7.25;;;4.20;;
62933;SDS011;49038;47.600;19.242;2022-08-18T07:47:24;5.47;;;3.47;;
62933;SDS011;49038;47.600;19.242;2022-08-18T07:50:31;4.53;;;3.73;;
62933;SDS011;49038;47.600;19.242;2022-08-18T07:54:01;4.90;;;3.78;;
62933;SDS011;49038;47.600;19.242;2022-08-18T07:57:10;4.18;;;3.72;;
62933;SDS011;49038;47.600;19.242;2022-08-18T08:00:22;11.60;;;4.00;;
62933;SDS011;49038;47.600;19.242;2022-08-18T08:07:18;4.25;;;3.55;;
62933;SDS011;49038;47.600;19.242;2022-08-18T08:10:39;8.43;;;4.12;;
62933;SDS011;49038;47.600;19.242;2022-08-18T08:20:57;4.28;;;3.58;;
62933;SDS011;49038;47.600;19.242;2022-08-18T08:23:54;12.68;;;4.12;;
62933;SDS011;49038;47.600;19.242;2022-08-18T08:27:17;7.10;;;3.70;;
62933;SDS011;49038;47.600;19.242;2022-08-18T08:30:39;7.05;;;3.80;;
62933;SDS011;49038;47.600;19.242;2022-08-18T08:33:50;4.75;;;3.60;;
62933;SDS011;49038;47.600;19.242;2022-08-18T08:37:02;4.68;;;3.40;;
62933;SDS011;49038;47.600;19.242;2022-08-18T08:40:27;7.15;;;3.90;;
62933;SDS011;49038;47.600;19.242;2022-08-18T08:43:37;7.80;;;4.22;;
62933;SDS011;49038;47.600;19.242;2022-08-18T08:46:50;22.37;;;6.15;;
62933;SDS011;49038;47.600;19.242;2022-08-18T08:49:57;6.05;;;3.42;;
62933;SDS011;49038;47.600;19.242;2022-08-18T08:53:08;4.85;;;3.35;;
62933;SDS011;49038;47.600;19.242;2022-08-18T08:56:29;3.22;;;2.92;;
62933;SDS011;49038;47.600;19.242;2022-08-18T08:59:34;5.50;;;3.37;;
62933;SDS011;49038;47.600;19.242;2022-08-18T09:06:31;5.12;;;2.97;;
62933;SDS011;49038;47.600;19.242;2022-08-18T09:13:46;6.37;;;3.30;;
62933;SDS011;49038;47.600;19.242;2022-08-18T09:20:17;8.73;;;3.10;;
62933;SDS011;49038;47.600;19.242;2022-08-18T09:23:33;5.18;;;3.08;;
62933;SDS011;49038;47.600;19.242;2022-08-18T09:26:42;4.05;;;3.10;;
62933;SDS011;49038;47.600;19.242;2022-08-18T09:29:52;3.62;;;2.90;;
62933;SDS011;49038;47.600;19.242;2022-08-18T09:33:01;5.87;;;3.22;;
62933;SDS011;49038;47.600;19.242;2022-08-18T09:39:48;4.40;;;2.90;;
62933;SDS011;49038;47.600;19.242;2022-08-18T09:50:32;5.55;;;3.20;;
62933;SDS011;49038;47.600;19.242;2022-08-18T10:03:21;3.85;;;2.92;;
62933;SDS011;49038;47.600;19.242;2022-08-18T10:06:34;4.12;;;2.80;;
62933;SDS011;49038;47.600;19.242;2022-08-18T10:09:44;3.95;;;2.58;;
62933;SDS011;49038;47.600;19.242;2022-08-18T10:22:41;4.30;;;2.70;;
62933;SDS011;49038;47.600;19.242;2022-08-18T10:25:48;4.37;;;2.37;;
62933;SDS011;49038;47.600;19.242;2022-08-18T10:28:52;3.20;;;2.58;;
62933;SDS011;49038;47.600;19.242;2022-08-18T10:35:00;3.58;;;2.78;;
62933;SDS011;49038;47.600;19.242;2022-08-18T10:38:14;3.10;;;2.50;;
62933;SDS011;49038;47.600;19.242;2022-08-18T10:41:23;4.97;;;2.50;;
62933;SDS011;49038;47.600;19.242;2022-08-18T10:44:50;3.78;;;2.80;;
62933;SDS011;49038;47.600;19.242;2022-08-18T10:47:57;4.28;;;2.42;;
62933;SDS011;49038;47.600;19.242;2022-08-18T10:54:50;4.05;;;2.28;;
62933;SDS011;49038;47.600;19.242;2022-08-18T11:04:51;2.40;;;2.10;;
62933;SDS011;49038;47.600;19.242;2022-08-18T11:11:19;5.93;;;2.47;;
62933;SDS011;49038;47.600;19.242;2022-08-18T11:14:58;3.10;;;2.12;;
62933;SDS011;49038;47.600;19.242;2022-08-18T11:18:30;3.20;;;2.15;;
62933;SDS011;49038;47.600;19.242;2022-08-18T11:21:55;4.55;;;1.90;;
62933;SDS011;49038;47.600;19.242;2022-08-18T11:24:58;2.62;;;2.08;;
62933;SDS011;49038;47.600;19.242;2022-08-18T11:28:13;7.78;;;2.47;;
62933;SDS011;49038;47.600;19.242;2022-08-18T11:31:19;3.17;;;2.08;;
62933;SDS011;49038;47.600;19.242;2022-08-18T11:35:05;2.42;;;2.10;;
62933;SDS011;49038;47.600;19.242;2022-08-18T11:38:28;4.62;;;1.98;;
62933;SDS011;49038;47.600;19.242;2022-08-18T11:41:33;4.95;;;2.12;;
62933;SDS011;49038;47.600;19.242;2022-08-18T11:44:49;5.57;;;2.30;;
62933;SDS011;49038;47.600;19.242;2022-08-18T11:51:25;10.25;;;2.40;;
62933;SDS011;49038;47.600;19.242;2022-08-18T11:54:34;3.00;;;2.03;;
62933;SDS011;49038;47.600;19.242;2022-08-18T11:57:41;2.62;;;1.90;;
62933;SDS011;49038;47.600;19.242;2022-08-18T12:03:54;2.17;;;1.98;;
62933;SDS011;49038;47.600;19.242;2022-08-18T12:10:18;4.45;;;2.22;;
62933;SDS011;49038;47.600;19.242;2022-08-18T12:13:29;4.25;;;2.37;;
62933;SDS011;49038;47.600;19.242;2022-08-18T12:16:42;2.80;;;2.20;;
62933;SDS011;49038;47.600;19.242;2022-08-18T12:19:51;2.40;;;1.90;;
62933;SDS011;49038;47.600;19.242;2022-08-18T12:22:54;5.40;;;1.98;;
62933;SDS011;49038;47.600;19.242;2022-08-18T12:25:57;4.68;;;2.10;;
62933;SDS011;49038;47.600;19.242;2022-08-18T12:29:00;4.15;;;1.95;;
62933;SDS011;49038;47.600;19.242;2022-08-18T12:32:03;10.88;;;2.37;;
62933;SDS011;49038;47.600;19.242;2022-08-18T12:35:26;3.30;;;1.80;;
62933;SDS011;49038;47.600;19.242;2022-08-18T12:38:28;4.80;;;1.60;;
62933;SDS011;49038;47.600;19.242;2022-08-18T12:41:32;2.58;;;2.12;;
62933;SDS011;49038;47.600;19.242;2022-08-18T12:44:35;3.75;;;2.00;;
62933;SDS011;49038;47.600;19.242;2022-08-18T12:47:37;2.97;;;2.10;;
62933;SDS011;49038;47.600;19.242;2022-08-18T12:50:43;33.67;;;5.18;;
62933;SDS011;49038;47.600;19.242;2022-08-18T12:53:59;12.40;;;2.65;;
62933;SDS011;49038;47.600;19.242;2022-08-18T12:57:02;6.45;;;2.50;;
62933;SDS011;49038;47.600;19.242;2022-08-18T13:00:07;10.70;;;4.35;;
62933;SDS011;49038;47.600;19.242;2022-08-18T13:03:17;51.53;;;5.47;;
62933;SDS011;49038;47.600;19.242;2022-08-18T13:06:20;12.68;;;2.75;;
62933;SDS011;49038;47.600;19.242;2022-08-18T13:09:29;4.10;;;1.90;;
62933;SDS011;49038;47.600;19.242;2022-08-18T13:12:52;3.40;;;2.15;;
62933;SDS011;49038;47.600;19.242;2022-08-18T13:15:54;7.28;;;2.35;;
62933;SDS011;49038;47.600;19.242;2022-08-18T13:19:02;4.47;;;2.10;;
62933;SDS011;49038;47.600;19.242;2022-08-18T13:22:06;2.70;;;2.15;;
62933;SDS011;49038;47.600;19.242;2022-08-18T13:25:13;4.10;;;2.60;;
62933;SDS011;49038;47.600;19.242;2022-08-18T13:28:36;6.10;;;2.25;;
62933;SDS011;49038;47.600;19.242;2022-08-18T13:31:57;5.28;;;2.12;;
62933;SDS011;49038;47.600;19.242;2022-08-18T13:35:00;4.47;;;2.10;;
62933;SDS011;49038;47.600;19.242;2022-08-18T13:38:14;4.22;;;2.25;;
62933;SDS011;49038;47.600;19.242;2022-08-18T13:41:28;5.70;;;2.40;;
62933;SDS011;49038;47.600;19.242;2022-08-18T13:44:33;4.75;;;2.50;;
62933;SDS011;49038;47.600;19.242;2022-08-18T13:47:35;4.20;;;1.90;;
62933;SDS011;49038;47.600;19.242;2022-08-18T13:50:39;3.22;;;2.17;;
62933;SDS011;49038;47.600;19.242;2022-08-18T13:53:42;2.58;;;1.95;;
62933;SDS011;49038;47.600;19.242;2022-08-18T13:57:00;2.72;;;2.03;;
62933;SDS011;49038;47.600;19.242;2022-08-18T14:00:04;4.03;;;2.00;;
62933;SDS011;49038;47.600;19.242;2022-08-18T14:03:20;2.47;;;1.95;;
62933;SDS011;49038;47.600;19.242;2022-08-18T14:06:44;4.93;;;2.58;;
62933;SDS011;49038;47.600;19.242;2022-08-18T14:09:52;5.80;;;1.92;;
62933;SDS011;49038;47.600;19.242;2022-08-18T14:12:55;3.10;;;1.90;;
62933;SDS011;49038;47.600;19.242;2022-08-18T14:15:58;2.67;;;2.00;;
62933;SDS011;49038;47.600;19.242;2022-08-18T14:19:03;3.08;;;2.28;;
62933;SDS011;49038;47.600;19.242;2022-08-18T14:22:24;5.53;;;2.25;;
62933;SDS011;49038;47.600;19.242;2022-08-18T14:25:45;5.00;;;2.53;;
62933;SDS011;49038;47.600;19.242;2022-08-18T14:29:08;2.10;;;1.80;;
62933;SDS011;49038;47.600;19.242;2022-08-18T14:32:18;5.28;;;2.08;;
62933;SDS011;49038;47.600;19.242;2022-08-18T14:35:30;2.78;;;2.15;;
62933;SDS011;49038;47.600;19.242;2022-08-18T14:38:52;3.92;;;2.62;;
62933;SDS011;49038;47.600;19.242;2022-08-18T14:41:56;3.80;;;2.70;;
62933;SDS011;49038;47.600;19.242;2022-08-18T14:44:59;6.70;;;3.40;;
62933;SDS011;49038;47.600;19.242;2022-08-18T14:48:21;3.62;;;2.90;;
62933;SDS011;49038;47.600;19.242;2022-08-18T14:51:24;3.28;;;2.80;;
62933;SDS011;49038;47.600;19.242;2022-08-18T14:54:30;4.43;;;3.30;;
62933;SDS011;49038;47.600;19.242;2022-08-18T14:57:33;5.22;;;2.65;;
62933;SDS011;49038;47.600;19.242;2022-08-18T15:00:37;5.10;;;3.20;;
62933;SDS011;49038;47.600;19.242;2022-08-18T15:03:55;6.30;;;3.30;;
62933;SDS011;49038;47.600;19.242;2022-08-18T15:06:57;4.28;;;2.90;;
62933;SDS011;49038;47.600;19.242;2022-08-18T15:09:59;3.83;;;3.00;;
62933;SDS011;49038;47.600;19.242;2022-08-18T15:13:17;4.87;;;3.17;;
62933;SDS011;49038;47.600;19.242;2022-08-18T15:16:21;21.12;;;5.05;;
62933;SDS011;49038;47.600;19.242;2022-08-18T15:19:33;6.28;;;4.37;;
62933;SDS011;49038;47.600;19.242;2022-08-18T15:22:59;10.10;;;4.80;;
62933;SDS011;49038;47.600;19.242;2022-08-18T15:26:28;6.57;;;5.22;;
62933;SDS011;49038;47.600;19.242;2022-08-18T15:29:31;8.40;;;4.87;;
62933;SDS011;49038;47.600;19.242;2022-08-18T15:32:34;8.30;;;5.90;;
62933;SDS011;49038;47.600;19.242;2022-08-18T15:35:36;11.10;;;6.03;;
62933;SDS011;49038;47.600;19.242;2022-08-18T15:38:45;9.85;;;5.90;;
62933;SDS011;49038;47.600;19.242;2022-08-18T15:41:47;9.18;;;6.78;;
62933;SDS011;49038;47.600;19.242;2022-08-18T15:44:53;10.98;;;7.10;;
62933;SDS011;49038;47.600;19.242;2022-08-18T15:47:57;9.10;;;7.22;;
62933;SDS011;49038;47.600;19.242;2022-08-18T15:51:00;10.18;;;7.32;;
62933;SDS011;49038;47.600;19.242;2022-08-18T15:54:13;8.43;;;7.07;;
62933;SDS011;49038;47.600;19.242;2022-08-18T15:57:15;10.85;;;7.68;;
62933;SDS011;49038;47.600;19.242;2022-08-18T16:00:39;10.52;;;7.50;;
62933;SDS011;49038;47.600;19.242;2022-08-18T16:03:47;9.25;;;7.32;;
62933;SDS011;49038;47.600;19.242;2022-08-18T16:06:52;8.60;;;6.78;;
62933;SDS011;49038;47.600;19.242;2022-08-18T16:09:56;9.02;;;6.93;;
62933;SDS011;49038;47.600;19.242;2022-08-18T16:12:59;10.10;;;7.22;;
62933;SDS011;49038;47.600;19.242;2022-08-18T16:16:09;10.20;;;7.12;;
62933;SDS011;49038;47.600;19.242;2022-08-18T16:19:12;17.67;;;7.82;;
62933;SDS011;49038;47.600;19.242;2022-08-18T16:22:15;7.90;;;6.70;;
62933;SDS011;49038;47.600;19.242;2022-08-18T16:25:17;7.47;;;5.85;;
62933;SDS011;49038;47.600;19.242;2022-08-18T16:28:19;8.98;;;5.90;;
62933;SDS011;49038;47.600;19.242;2022-08-18T16:31:35;10.05;;;6.68;;
62933;SDS011;49038;47.600;19.242;2022-08-18T16:34:38;8.02;;;6.22;;
62933;SDS011;49038;47.600;19.242;2022-08-18T16:37:42;8.15;;;6.28;;
62933;SDS011;49038;47.600;19.242;2022-08-18T16:40:45;9.40;;;5.87;;
62933;SDS011;49038;47.600;19.242;2022-08-18T16:43:48;9.00;;;6.10;;
62933;SDS011;49038;47.600;19.242;2022-08-18T16:46:50;6.53;;;5.53;;
62933;SDS011;49038;47.600;19.242;2022-08-18T16:49:54;4.85;;;3.92;;
62933;SDS011;49038;47.600;19.242;2022-08-18T16:52:59;6.12;;;4.53;;
62933;SDS011;49038;47.600;19.242;2022-08-18T16:56:02;5.37;;;4.10;;
62933;SDS011;49038;47.600;19.242;2022-08-18T16:59:04;6.90;;;4.07;;
62933;SDS011;49038;47.600;19.242;2022-08-18T17:02:25;8.88;;;4.28;;
62933;SDS011;49038;47.600;19.242;2022-08-18T17:05:47;8.48;;;3.83;;
62933;SDS011;49038;47.600;19.242;2022-08-18T17:08:49;5.07;;;3.62;;
62933;SDS011;49038;47.600;19.242;2022-08-18T17:11:51;4.53;;;3.33;;
62933;SDS011;49038;47.600;19.242;2022-08-18T17:14:54;7.07;;;3.55;;
62933;SDS011;49038;47.600;19.242;2022-08-18T17:17:56;9.98;;;5.37;;
62933;SDS011;49038;47.600;19.242;2022-08-18T17:21:02;10.15;;;6.28;;
62933;SDS011;49038;47.600;19.242;2022-08-18T17:24:07;7.35;;;5.12;;
62933;SDS011;49038;47.600;19.242;2022-08-18T17:27:15;7.50;;;3.53;;
62933;SDS011;49038;47.600;19.242;2022-08-18T17:30:29;7.53;;;3.55;;
62933;SDS011;49038;47.600;19.242;2022-08-18T17:33:35;5.90;;;3.97;;
62933;SDS011;49038;47.600;19.242;2022-08-18T17:36:51;8.02;;;3.90;;
62933;SDS011;49038;47.600;19.242;2022-08-18T17:39:56;5.95;;;3.62;;
62933;SDS011;49038;47.600;19.242;2022-08-18T17:43:04;11.40;;;5.90;;
62933;SDS011;49038;47.600;19.242;2022-08-18T17:46:15;11.10;;;5.87;;
62933;SDS011;49038;47.600;19.242;2022-08-18T17:49:39;9.10;;;4.55;;
62933;SDS011;49038;47.600;19.242;2022-08-18T17:53:22;8.48;;;4.28;;
62933;SDS011;49038;47.600;19.242;2022-08-18T17:56:28;13.62;;;4.70;;
62933;SDS011;49038;47.600;19.242;2022-08-18T17:59:39;3.72;;;3.25;;
62933;SDS011;49038;47.600;19.242;2022-08-18T18:02:52;11.85;;;4.55;;
62933;SDS011;49038;47.600;19.242;2022-08-18T18:05:57;6.47;;;4.28;;
62933;SDS011;49038;47.600;19.242;2022-08-18T18:12:23;8.13;;;4.35;;
62933;SDS011;49038;47.600;19.242;2022-08-18T18:15:30;8.35;;;4.57;;
62933;SDS011;49038;47.600;19.242;2022-08-18T18:18:41;6.22;;;4.07;;
62933;SDS011;49038;47.600;19.242;2022-08-18T18:21:46;5.47;;;3.92;;
62933;SDS011;49038;47.600;19.242;2022-08-18T18:25:04;5.55;;;4.15;;
62933;SDS011;49038;47.600;19.242;2022-08-18T18:28:25;7.65;;;4.57;;
62933;SDS011;49038;47.600;19.242;2022-08-18T18:31:35;7.05;;;4.55;;
62933;SDS011;49038;47.600;19.242;2022-08-18T18:34:43;5.00;;;3.85;;
62933;SDS011;49038;47.600;19.242;2022-08-18T18:37:51;9.77;;;4.60;;
62933;SDS011;49038;47.600;19.242;2022-08-18T18:44:07;5.47;;;3.85;;
62933;SDS011;49038;47.600;19.242;2022-08-18T18:47:24;5.22;;;4.43;;
62933;SDS011;49038;47.600;19.242;2022-08-18T19:01:08;6.72;;;3.87;;
62933;SDS011;49038;47.600;19.242;2022-08-18T19:04:26;9.05;;;4.00;;
62933;SDS011;49038;47.600;19.242;2022-08-18T19:08:22;4.47;;;3.42;;
62933;SDS011;49038;47.600;19.242;2022-08-18T19:14:16;8.38;;;3.17;;
62933;SDS011;49038;47.600;19.242;2022-08-18T19:17:43;7.95;;;4.00;;
62933;SDS011;49038;47.600;19.242;2022-08-18T19:20:56;3.97;;;3.12;;
62933;SDS011;49038;47.600;19.242;2022-08-18T19:24:22;7.05;;;4.03;;
62933;SDS011;49038;47.600;19.242;2022-08-18T19:27:28;4.60;;;3.05;;
62933;SDS011;49038;47.600;19.242;2022-08-18T19:30:37;9.98;;;3.90;;
62933;SDS011;49038;47.600;19.242;2022-08-18T19:34:01;4.82;;;3.10;;
62933;SDS011;49038;47.600;19.242;2022-08-18T19:37:16;7.75;;;3.50;;
62933;SDS011;49038;47.600;19.242;2022-08-18T19:43:57;4.97;;;3.10;;
62933;SDS011;49038;47.600;19.242;2022-08-18T19:50:55;4.40;;;3.42;;
62933;SDS011;49038;47.600;19.242;2022-08-18T19:54:35;4.15;;;3.37;;
62933;SDS011;49038;47.600;19.242;2022-08-18T20:05:02;5.28;;;3.10;;
62933;SDS011;49038;47.600;19.242;2022-08-18T20:15:00;4.55;;;3.65;;
62933;SDS011;49038;47.600;19.242;2022-08-18T20:18:19;4.65;;;3.33;;
62933;SDS011;49038;47.600;19.242;2022-08-18T20:21:39;5.15;;;3.53;;
62933;SDS011;49038;47.600;19.242;2022-08-18T20:31:06;5.20;;;3.55;;
62933;SDS011;49038;47.600;19.242;2022-08-18T20:34:14;4.97;;;3.55;;
62933;SDS011;49038;47.600;19.242;2022-08-18T20:37:22;4.45;;;3.17;;
62933;SDS011;49038;47.600;19.242;2022-08-18T20:40:37;5.28;;;3.60;;
62933;SDS011;49038;47.600;19.242;2022-08-18T20:43:43;5.68;;;3.50;;
62933;SDS011;49038;47.600;19.242;2022-08-18T20:53:43;5.32;;;3.55;;
62933;SDS011;49038;47.600;19.242;2022-08-18T20:56:55;8.48;;;3.55;;
62933;SDS011;49038;47.600;19.242;2022-08-18T21:00:21;5.78;;;3.55;;
62933;SDS011;49038;47.600;19.242;2022-08-18T21:03:35;6.45;;;3.97;;
62933;SDS011;49038;47.600;19.242;2022-08-18T21:06:40;6.90;;;3.47;;
62933;SDS011;49038;47.600;19.242;2022-08-18T21:09:49;5.43;;;3.78;;
62933;SDS011;49038;47.600;19.242;2022-08-18T21:12:53;4.75;;;3.22;;
62933;SDS011;49038;47.600;19.242;2022-08-18T21:15:58;7.05;;;3.33;;
62933;SDS011;49038;47.600;19.242;2022-08-18T21:19:02;7.85;;;3.53;;
62933;SDS011;49038;47.600;19.242;2022-08-18T21:22:25;5.78;;;3.70;;
62933;SDS011;49038;47.600;19.242;2022-08-18T21:25:28;5.93;;;4.28;;
62933;SDS011;49038;47.600;19.242;2022-08-18T21:28:34;6.57;;;3.50;;
62933;SDS011;49038;47.600;19.242;2022-08-18T21:31:38;10.55;;;3.75;;